El Carril, Argentina
Current Conditions -  °F | °C
As of 10:00 PM on Friday 24 Oct 2014 (Local Time) from SASA Reporting Station
Scattered Clouds Scattered Clouds  
Wind Chill: 75°   Ceiling: Unl
Heat Index: 75°   Visibility: 6mi
Dew Point: 61°   Wind: 5mph
Humidity: 61%   Direction: 360°N
Pressure: 30.12"   Gusts: NA
Location:  25.03°S, 65.47°W
Report Text: SASA 250100Z 36004KT 9999 FEW030 SCT10024/16 Q1020
Loading
Personal Weather Stations






























Interactive Weather Map
Tropical Storm Tracking
New forecast layout! Learn more

10-Day Weather Forecast

Advertisements
Track Severe Weather on mobile